Time;durP1;ratioP1;P1;durP2;ratioP2;P2;SDS_P1;SDS_P2;PMS_P1;PMS_P2;Temp;Humidity;BMP_temperature;BMP_pressure;BME280_temperature;BME280_humidity;BME280_pressure;Samples;Min_cycle;Max_cycle;Signal;HPM_P1;HPM_P2
2022/01/11 00:00:37;;;;;;;;;;;;;;;;;;5115346;28;20294;-75
2022/01/11 00:03:03;;;;;;;;;;;;;;;;;;5097487;28;19923;-76
2022/01/11 00:05:36;;;;;;;;;;;;;;;;;;5116744;28;20014;-76
2022/01/11 00:08:01;;;;;;;;;;;;;;;;;;5100112;28;19958;-76
2022/01/11 00:10:34;;;;;;;;;;;;;;;;;;5116051;28;19920;-76
2022/01/11 00:13:00;;;;;;;;;;;;;;;;;;5115134;28;20276;-76
2022/01/11 00:15:25;;;;;;;;;;;;;;;;;;5115108;28;19915;-76
2022/01/11 00:17:51;;;;;;;;;;;;;;;;;;5114993;28;19916;-76
2022/01/11 00:20:18;;;;;;;;;;;;;;;;;;5097027;28;20439;-76
2022/01/11 00:25:24;;;;;;;;;;;;;;;;;;5114948;28;19923;-76
2022/01/11 00:27:50;;;;;;;;;;;;;;;;;;5115020;28;20260;-76
2022/01/11 00:30:15;;;;;;;;;;;;;;;;;;5114913;28;20244;-75
2022/01/11 00:32:46;;;;;;;;;;;;;;;;;;5114866;28;19916;-76
2022/01/11 00:35:15;;;;;;;;;;;;;;;;;;5114449;28;19926;-76
2022/01/11 00:37:41;;;;;;;;;;;;;;;;;;5114618;28;20234;-76
2022/01/11 00:40:08;;;;;;;;;;;;;;;;;;5096407;28;19919;-76
2022/01/11 00:42:33;;;;;;;;;;;;;;;;;;5096713;28;19920;-76
2022/01/11 00:44:59;;;;;;;;;;;;;;;;;;5114219;28;19916;-76
2022/01/11 00:47:24;;;;;;;;;;;;;;;;;;5096643;28;20006;-75
2022/01/11 00:49:51;;;;;;;;;;;;;;;;;;5096180;28;19981;-76
2022/01/11 00:52:17;;;;;;;;;;;;;;;;;;5114549;28;19979;-77
2022/01/11 00:54:42;;;;;;;;;;;;;;;;;;5117999;28;19916;-77
2022/01/11 00:57:07;;;;;;;;;;;;;;;;;;5118046;28;19951;-76
2022/01/11 00:59:33;;;;;;;;;;;;;;;;;;5118010;28;19972;-76
2022/01/11 01:01:58;;;;;;;;;;;;;;;;;;5117831;28;19922;-77
2022/01/11 01:04:24;;;;;;;;;;;;;;;;;;5082766;28;19951;-76
2022/01/11 01:06:49;;;;;;;;;;;;;;;;;;5117825;28;19912;-76
2022/01/11 01:09:14;;;;;;;;;;;;;;;;;;5117729;28;19923;-77
2022/01/11 01:11:43;;;;;;;;;;;;;;;;;;5117745;28;19939;-77
2022/01/11 01:14:08;;;;;;;;;;;;;;;;;;5117332;28;19923;-76
2022/01/11 01:16:34;;;;;;;;;;;;;;;;;;5118535;28;20329;-76
2022/01/11 01:18:59;;;;;;;;;;;;;;;;;;5118150;28;19912;-76
2022/01/11 01:21:24;;;;;;;;;;;;;;;;;;5117763;28;19916;-76
2022/01/11 01:23:50;;;;;;;;;;;;;;;;;;5117621;28;19916;-75
2022/01/11 01:26:17;;;;;;;;;;;;;;;;;;5117434;28;20348;-75
2022/01/11 01:28:43;;;;;;;;;;;;;;;;;;5116949;28;19915;-76
2022/01/11 01:31:08;;;;;;;;;;;;;;;;;;5117414;28;20002;-76
2022/01/11 01:33:34;;;;;;;;;;;;;;;;;;5117012;28;19966;-76
2022/01/11 01:36:02;;;;;;;;;;;;;;;;;;5117356;28;19923;-76
2022/01/11 01:38:28;;;;;;;;;;;;;;;;;;5118577;28;20295;-75
2022/01/11 01:40:57;;;;;;;;;;;;;;;;;;5117768;28;19916;-76
2022/01/11 01:43:24;;;;;;;;;;;;;;;;;;5116865;28;19923;-76
2022/01/11 01:45:50;;;;;;;;;;;;;;;;;;5117121;28;19969;-75
2022/01/11 01:48:16;;;;;;;;;;;;;;;;;;5117329;28;19915;-76
2022/01/11 01:50:42;;;;;;;;;;;;;;;;;;5116986;28;19912;-75
2022/01/11 01:53:10;;;;;;;;;;;;;;;;;;5116963;28;19916;-76
2022/01/11 01:55:36;;;;;;;;;;;;;;;;;;5117109;28;19915;-76
2022/01/11 01:58:01;;;;;;;;;;;;;;;;;;5099178;28;20394;-76
2022/01/11 02:00:29;;;;;;;;;;;;;;;;;;5116837;28;19959;-75
2022/01/11 02:03:02;;;;;;;;;;;;;;;;;;5116765;28;19920;-76
2022/01/11 02:05:28;;;;;;;;;;;;;;;;;;5115890;28;19955;-75
2022/01/11 02:07:53;;;;;;;;;;;;;;;;;;5098469;28;19922;-76
2022/01/11 02:10:18;;;;;;;;;;;;;;;;;;5116607;28;19915;-76
2022/01/11 02:12:44;;;;;;;;;;;;;;;;;;5098099;28;19916;-76
2022/01/11 02:15:09;;;;;;;;;;;;;;;;;;5116485;28;19922;-75
2022/01/11 02:17:36;;;;;;;;;;;;;;;;;;5116590;28;19915;-75
2022/01/11 02:20:01;;;;;;;;;;;;;;;;;;5116739;28;19916;-75
2022/01/11 02:22:27;;;;;;;;;;;;;;;;;;5116253;28;19923;-75
2022/01/11 02:24:52;;;;;;;;;;;;;;;;;;5116614;28;19916;-75
2022/01/11 02:27:18;;;;;;;;;;;;;;;;;;5116030;28;19916;-75
2022/01/11 02:29:43;;;;;;;;;;;;;;;;;;5098088;28;20260;-75
2022/01/11 02:32:09;;;;;;;;;;;;;;;;;;5098102;28;19998;-75
2022/01/11 02:34:34;;;;;;;;;;;;;;;;;;5116227;28;20328;-75
2022/01/11 02:37:00;;;;;;;;;;;;;;;;;;5116100;28;19965;-75
2022/01/11 02:39:25;;;;;;;;;;;;;;;;;;5116200;28;19916;-76
2022/01/11 02:41:51;;;;;;;;;;;;;;;;;;5116025;28;19964;-75
2022/01/11 02:44:17;;;;;;;;;;;;;;;;;;5097846;28;19973;-75
2022/01/11 02:46:42;;;;;;;;;;;;;;;;;;5115902;28;20299;-75
2022/01/11 02:49:07;;;;;;;;;;;;;;;;;;5115874;28;19915;-76
2022/01/11 02:51:32;;;;;;;;;;;;;;;;;;5115871;28;19920;-75
2022/01/11 02:53:59;;;;;;;;;;;;;;;;;;5115377;28;19923;-75
2022/01/11 02:56:25;;;;;;;;;;;;;;;;;;5115734;28;19915;-75
2022/01/11 02:58:50;;;;;;;;;;;;;;;;;;5115666;28;20002;-75
2022/01/11 03:01:16;;;;;;;;;;;;;;;;;;5116067;28;19916;-75
2022/01/11 03:03:41;;;;;;;;;;;;;;;;;;5115909;28;19981;-76
2022/01/11 03:06:06;;;;;;;;;;;;;;;;;;5115639;28;20002;-75
2022/01/11 03:08:32;;;;;;;;;;;;;;;;;;5097090;28;19922;-76
2022/01/11 03:10:58;;;;;;;;;;;;;;;;;;5115542;28;20795;-75
2022/01/11 03:13:23;;;;;;;;;;;;;;;;;;5115419;28;19916;-75
2022/01/11 03:15:49;;;;;;;;;;;;;;;;;;5115299;28;19923;-75
2022/01/11 03:18:15;;;;;;;;;;;;;;;;;;5115322;28;19922;-75
2022/01/11 03:20:40;;;;;;;;;;;;;;;;;;5115584;28;19919;-76
2022/01/11 03:23:06;;;;;;;;;;;;;;;;;;5115058;28;20307;-75
2022/01/11 03:25:31;;;;;;;;;;;;;;;;;;5115275;28;20457;-75
2022/01/11 03:27:57;;;;;;;;;;;;;;;;;;5097133;28;19923;-76
2022/01/11 03:30:22;;;;;;;;;;;;;;;;;;5097155;28;19973;-75
2022/01/11 03:32:47;;;;;;;;;;;;;;;;;;5115204;28;19915;-75
2022/01/11 03:35:13;;;;;;;;;;;;;;;;;;5115042;28;19919;-75
2022/01/11 03:37:38;;;;;;;;;;;;;;;;;;5115050;28;19916;-75
2022/01/11 03:40:05;;;;;;;;;;;;;;;;;;5115179;28;19916;-76
2022/01/11 03:42:31;;;;;;;;;;;;;;;;;;5115017;28;19923;-75
2022/01/11 03:44:56;;;;;;;;;;;;;;;;;;5115014;28;19916;-75
2022/01/11 03:47:21;;;;;;;;;;;;;;;;;;5115008;28;20253;-75
2022/01/11 03:49:47;;;;;;;;;;;;;;;;;;5115134;28;20261;-75
2022/01/11 03:52:12;;;;;;;;;;;;;;;;;;5096643;28;19915;-75
2022/01/11 03:55:02;;;;;;;;;;;;;;;;;;5115581;28;19915;-75
2022/01/11 03:57:30;;;;;;;;;;;;;;;;;;5115154;28;19947;-75
2022/01/11 03:59:56;;;;;;;;;;;;;;;;;;5114994;28;19958;-75
2022/01/11 04:02:21;;;;;;;;;;;;;;;;;;5114953;28;19951;-75
2022/01/11 04:04:52;;;;;;;;;;;;;;;;;;5114844;28;19915;-75
2022/01/11 04:07:18;;;;;;;;;;;;;;;;;;5114918;28;19915;-75
2022/01/11 04:09:43;;;;;;;;;;;;;;;;;;5114815;28;20238;-75
2022/01/11 04:12:09;;;;;;;;;;;;;;;;;;5114916;28;19916;-76
2022/01/11 04:14:34;;;;;;;;;;;;;;;;;;5114835;28;19916;-75
2022/01/11 04:16:59;;;;;;;;;;;;;;;;;;5114824;28;19916;-75
2022/01/11 04:19:25;;;;;;;;;;;;;;;;;;5114718;28;19951;-75
2022/01/11 04:21:50;;;;;;;;;;;;;;;;;;5114513;28;20241;-75
2022/01/11 04:24:15;;;;;;;;;;;;;;;;;;5114752;28;19923;-75
2022/01/11 04:26:41;;;;;;;;;;;;;;;;;;5114698;28;19916;-75
2022/01/11 04:29:06;;;;;;;;;;;;;;;;;;5117778;28;19965;-75
2022/01/11 04:31:31;;;;;;;;;;;;;;;;;;5100395;28;19920;-75
2022/01/11 04:33:57;;;;;;;;;;;;;;;;;;5118569;28;19926;-75
2022/01/11 04:36:22;;;;;;;;;;;;;;;;;;5099774;28;19999;-75
2022/01/11 04:38:47;;;;;;;;;;;;;;;;;;5118531;28;19919;-75
2022/01/11 04:41:13;;;;;;;;;;;;;;;;;;5118462;28;19916;-74
2022/01/11 04:43:38;;;;;;;;;;;;;;;;;;5118246;28;19923;-75
2022/01/11 04:46:04;;;;;;;;;;;;;;;;;;5100129;28;20229;-75
2022/01/11 04:48:32;;;;;;;;;;;;;;;;;;5118251;28;20329;-75
2022/01/11 04:50:58;;;;;;;;;;;;;;;;;;5118124;28;19923;-75
2022/01/11 04:53:23;;;;;;;;;;;;;;;;;;5099986;28;20245;-76
2022/01/11 04:55:49;;;;;;;;;;;;;;;;;;5117977;28;19916;-75
2022/01/11 04:58:14;;;;;;;;;;;;;;;;;;5118013;28;19919;-75
2022/01/11 05:00:39;;;;;;;;;;;;;;;;;;5118227;28;19916;-75
2022/01/11 05:03:05;;;;;;;;;;;;;;;;;;5118202;28;20380;-75
2022/01/11 05:05:30;;;;;;;;;;;;;;;;;;5117559;28;19927;-75
2022/01/11 05:07:55;;;;;;;;;;;;;;;;;;5099473;28;20010;-75
2022/01/11 05:10:21;;;;;;;;;;;;;;;;;;5099422;28;19916;-75
2022/01/11 05:12:46;;;;;;;;;;;;;;;;;;5118869;28;19963;-75
2022/01/11 05:15:12;;;;;;;;;;;;;;;;;;5117645;28;19974;-74
2022/01/11 05:17:37;;;;;;;;;;;;;;;;;;5099436;28;19923;-75
2022/01/11 05:20:03;;;;;;;;;;;;;;;;;;5117615;28;19915;-74
2022/01/11 05:22:29;;;;;;;;;;;;;;;;;;5117563;28;19916;-75
2022/01/11 05:24:54;;;;;;;;;;;;;;;;;;5117445;28;19912;-74
2022/01/11 05:27:19;;;;;;;;;;;;;;;;;;5117298;28;20046;-76
2022/01/11 05:29:45;;;;;;;;;;;;;;;;;;5116444;28;19922;-76
2022/01/11 05:32:10;;;;;;;;;;;;;;;;;;5117929;28;20363;-77
2022/01/11 05:34:35;;;;;;;;;;;;;;;;;;5116354;28;19920;-76
2022/01/11 05:37:01;;;;;;;;;;;;;;;;;;5117225;28;19916;-76
2022/01/11 05:39:26;;;;;;;;;;;;;;;;;;5115229;28;19924;-74
2022/01/11 05:41:52;;;;;;;;;;;;;;;;;;5117196;28;19916;-74
2022/01/11 05:44:17;;;;;;;;;;;;;;;;;;5115469;28;19911;-75
2022/01/11 05:46:42;;;;;;;;;;;;;;;;;;5116647;28;19973;-75
2022/01/11 05:49:08;;;;;;;;;;;;;;;;;;5115013;28;20341;-76
2022/01/11 05:51:33;;;;;;;;;;;;;;;;;;5112400;27;19973;-75
2022/01/11 05:53:58;;;;;;;;;;;;;;;;;;5065995;28;19943;-75
2022/01/11 05:56:27;;;;;;;;;;;;;;;;;;5101205;28;20644;-76
2022/01/11 05:58:53;;;;;;;;;;;;;;;;;;5084394;28;20232;-76
2022/01/11 06:01:19;;;;;;;;;;;;;;;;;;5084766;28;20066;-77
2022/01/11 06:03:44;;;;;;;;;;;;;;;;;;5087516;28;20464;-74
2022/01/11 06:06:09;;;;;;;;;;;;;;;;;;5106995;28;20310;-73
2022/01/11 06:08:35;;;;;;;;;;;;;;;;;;5102713;28;19928;-74
2022/01/11 06:11:00;;;;;;;;;;;;;;;;;;5109272;28;19951;-75
2022/01/11 06:13:26;;;;;;;;;;;;;;;;;;5080267;28;19973;-75
2022/01/11 06:15:52;;;;;;;;;;;;;;;;;;5079580;28;20287;-75
2022/01/11 06:18:17;;;;;;;;;;;;;;;;;;5095605;28;19975;-74
2022/01/11 06:20:43;;;;;;;;;;;;;;;;;;5076382;28;19926;-74
2022/01/11 06:23:08;;;;;;;;;;;;;;;;;;5105491;28;20249;-76
2022/01/11 06:25:34;;;;;;;;;;;;;;;;;;5104613;28;19920;-75
2022/01/11 06:27:59;;;;;;;;;;;;;;;;;;5088520;28;19926;-74
2022/01/11 06:30:24;;;;;;;;;;;;;;;;;;5064331;28;19927;-74
2022/01/11 06:32:50;;;;;;;;;;;;;;;;;;5101047;28;19924;-76
2022/01/11 06:35:16;;;;;;;;;;;;;;;;;;5081659;28;19932;-74
2022/01/11 06:37:41;;;;;;;;;;;;;;;;;;5108349;28;19984;-73
2022/01/11 06:40:08;;;;;;;;;;;;;;;;;;5108005;28;19923;-74
2022/01/11 06:42:34;;;;;;;;;;;;;;;;;;5105888;28;19924;-76
2022/01/11 06:44:59;;;;;;;;;;;;;;;;;;5096982;28;19920;-74
2022/01/11 06:47:24;;;;;;;;;;;;;;;;;;5089344;28;19920;-74
2022/01/11 06:49:50;;;;;;;;;;;;;;;;;;5105982;28;20050;-74
2022/01/11 06:52:15;;;;;;;;;;;;;;;;;;5103948;28;19920;-76
2022/01/11 06:54:44;;;;;;;;;;;;;;;;;;5088544;28;19920;-75
2022/01/11 06:57:09;;;;;;;;;;;;;;;;;;5097300;28;20014;-72
2022/01/11 06:59:36;;;;;;;;;;;;;;;;;;5099781;28;20018;-76
2022/01/11 07:02:03;;;;;;;;;;;;;;;;;;5098818;28;19920;-75
2022/01/11 07:04:28;;;;;;;;;;;;;;;;;;5099978;28;19984;-78
2022/01/11 07:06:53;;;;;;;;;;;;;;;;;;5100799;28;19916;-77
2022/01/11 07:09:19;;;;;;;;;;;;;;;;;;5081500;28;19920;-76
2022/01/11 07:11:44;;;;;;;;;;;;;;;;;;5100621;28;19936;-78
2022/01/11 07:14:11;;;;;;;;;;;;;;;;;;5101100;28;19981;-77
2022/01/11 07:16:36;;;;;;;;;;;;;;;;;;5103604;28;20358;-75
2022/01/11 07:19:02;;;;;;;;;;;;;;;;;;5110010;28;20049;-76
2022/01/11 07:21:27;;;;;;;;;;;;;;;;;;5106562;28;20014;-76
2022/01/11 07:23:53;;;;;;;;;;;;;;;;;;5081675;28;20253;-75
2022/01/11 07:26:18;;;;;;;;;;;;;;;;;;5101986;28;19920;-76
2022/01/11 07:28:46;;;;;;;;;;;;;;;;;;5106293;28;19916;-77
2022/01/11 07:31:11;;;;;;;;;;;;;;;;;;5087042;28;20310;-77
2022/01/11 07:33:39;;;;;;;;;;;;;;;;;;5080695;28;19920;-77
2022/01/11 07:36:05;;;;;;;;;;;;;;;;;;5101019;28;19919;-77
2022/01/11 07:38:30;;;;;;;;;;;;;;;;;;5110022;28;19943;-75
2022/01/11 07:40:55;;;;;;;;;;;;;;;;;;5094010;28;19991;-74
2022/01/11 07:43:27;;;;;;;;;;;;;;;;;;5106373;28;19928;-75
2022/01/11 07:45:52;;;;;;;;;;;;;;;;;;5102015;28;19920;-80
2022/01/11 07:48:19;;;;;;;;;;;;;;;;;;5094610;28;20394;-76
2022/01/11 07:50:44;;;;;;;;;;;;;;;;;;5103640;28;20326;-76
2022/01/11 07:53:09;;;;;;;;;;;;;;;;;;5103514;28;19920;-77
2022/01/11 07:55:35;;;;;;;;;;;;;;;;;;5095980;28;19920;-76
2022/01/11 07:58:00;;;;;;;;;;;;;;;;;;5105674;28;19928;-78
2022/01/11 08:00:26;;;;;;;;;;;;;;;;;;5106019;28;19966;-76
2022/01/11 08:02:52;;;;;;;;;;;;;;;;;;5088779;28;19923;-78
2022/01/11 08:05:18;;;;;;;;;;;;;;;;;;5063855;28;19915;-77
2022/01/11 08:07:43;;;;;;;;;;;;;;;;;;5106729;28;19927;-76
2022/01/11 08:10:11;;;;;;;;;;;;;;;;;;5109437;27;19926;-77
2022/01/11 08:12:37;;;;;;;;;;;;;;;;;;5107071;28;19916;-76
2022/01/11 08:15:02;;;;;;;;;;;;;;;;;;5106047;27;20333;-75
2022/01/11 08:17:28;;;;;;;;;;;;;;;;;;5104997;27;20308;-77
2022/01/11 08:19:54;;;;;;;;;;;;;;;;;;5109811;28;20261;-76
2022/01/11 08:22:19;;;;;;;;;;;;;;;;;;5100444;27;19993;-77
2022/01/11 08:24:45;;;;;;;;;;;;;;;;;;5101159;28;19967;-75
2022/01/11 08:27:10;;;;;;;;;;;;;;;;;;5119747;28;19919;-76
2022/01/11 08:29:44;;;;;;;;;;;;;;;;;;5093003;28;19924;-77
2022/01/11 08:32:09;;;;;;;;;;;;;;;;;;5090920;28;20313;-75
2022/01/11 08:34:34;;;;;;;;;;;;;;;;;;5108265;28;19919;-78
2022/01/11 08:37:04;;;;;;;;;;;;;;;;;;5106733;28;19942;-77
2022/01/11 08:39:30;;;;;;;;;;;;;;;;;;5104840;28;19996;-79
2022/01/11 08:41:55;;;;;;;;;;;;;;;;;;5084209;28;19981;-78
2022/01/11 08:44:23;;;;;;;;;;;;;;;;;;5103782;28;19924;-79
2022/01/11 08:46:49;;;;;;;;;;;;;;;;;;5093095;28;20004;-79
2022/01/11 08:49:15;;;;;;;;;;;;;;;;;;5097189;28;19955;-80
2022/01/11 08:51:40;;;;;;;;;;;;;;;;;;5115868;28;19922;-77
2022/01/11 08:54:06;;;;;;;;;;;;;;;;;;5114163;28;20065;-77
2022/01/11 08:56:31;;;;;;;;;;;;;;;;;;5111790;28;19923;-78
2022/01/11 08:58:56;;;;;;;;;;;;;;;;;;5095334;28;19919;-80
2022/01/11 09:01:23;;;;;;;;;;;;;;;;;;5093925;28;19931;-81
2022/01/11 09:03:49;;;;;;;;;;;;;;;;;;5092068;28;19919;-78
2022/01/11 09:06:14;;;;;;;;;;;;;;;;;;5117810;28;19920;-78
2022/01/11 09:08:39;;;;;;;;;;;;;;;;;;5112528;28;19924;-77
2022/01/11 09:11:05;;;;;;;;;;;;;;;;;;5113078;28;19942;-80
2022/01/11 09:13:31;;;;;;;;;;;;;;;;;;5081560;28;20280;-78
2022/01/11 09:15:56;;;;;;;;;;;;;;;;;;5098124;28;19928;-78
2022/01/11 09:18:22;;;;;;;;;;;;;;;;;;5116515;28;20259;-78
2022/01/11 09:20:49;;;;;;;;;;;;;;;;;;5115417;28;19919;-78
2022/01/11 09:23:14;;;;;;;;;;;;;;;;;;5112731;28;19920;-78
2022/01/11 09:25:39;;;;;;;;;;;;;;;;;;5123536;28;20027;-78
2022/01/11 09:28:05;;;;;;;;;;;;;;;;;;5100137;28;19920;-79
2022/01/11 09:30:30;;;;;;;;;;;;;;;;;;5096970;28;19919;-78
2022/01/11 09:32:56;;;;;;;;;;;;;;;;;;5112854;28;19927;-79
2022/01/11 09:35:21;;;;;;;;;;;;;;;;;;5095935;28;19919;-78
2022/01/11 09:37:47;;;;;;;;;;;;;;;;;;5096471;28;19923;-78
2022/01/11 09:40:13;;;;;;;;;;;;;;;;;;5114735;28;19994;-77
2022/01/11 09:42:38;;;;;;;;;;;;;;;;;;5112818;28;20421;-79
2022/01/11 09:45:04;;;;;;;;;;;;;;;;;;5118751;28;19931;-79
2022/01/11 09:47:30;;;;;;;;;;;;;;;;;;5107824;28;19927;-81
2022/01/11 09:49:56;;;;;;;;;;;;;;;;;;5113856;28;20399;-80
2022/01/11 09:52:22;;;;;;;;;;;;;;;;;;5078457;28;19932;-80
2022/01/11 09:54:49;;;;;;;;;;;;;;;;;;5077409;28;19941;-80
2022/01/11 09:57:14;;;;;;;;;;;;;;;;;;5113236;28;19927;-78
2022/01/11 09:59:40;;;;;;;;;;;;;;;;;;5095446;28;19915;-81
2022/01/11 10:02:05;;;;;;;;;;;;;;;;;;5113698;28;19939;-78
2022/01/11 10:04:32;;;;;;;;;;;;;;;;;;5123844;28;19930;-78
2022/01/11 10:06:59;;;;;;;;;;;;;;;;;;5096304;28;20254;-78
2022/01/11 10:09:25;;;;;;;;;;;;;;;;;;5095955;28;20357;-78
2022/01/11 10:11:51;;;;;;;;;;;;;;;;;;5098702;28;19961;-81
2022/01/11 10:14:24;;;;;;;;;;;;;;;;;;5096051;28;20023;-79
2022/01/11 10:16:50;;;;;;;;;;;;;;;;;;5112284;28;19915;-79
2022/01/11 10:19:19;;;;;;;;;;;;;;;;;;5111987;28;19946;-79
2022/01/11 10:21:45;;;;;;;;;;;;;;;;;;5093831;28;20358;-78
2022/01/11 10:24:27;;;;;;;;;;;;;;;;;;5085829;28;19932;-78
2022/01/11 10:26:56;;;;;;;;;;;;;;;;;;5096334;28;20560;-78
2022/01/11 10:29:25;;;;;;;;;;;;;;;;;;5113165;28;19919;-76
2022/01/11 10:31:51;;;;;;;;;;;;;;;;;;5114990;28;19944;-78
2022/01/11 10:34:36;;;;;;;;;;;;;;;;;;5093910;28;19920;-77
2022/01/11 10:37:02;;;;;;;;;;;;;;;;;;5095091;28;19971;-78
2022/01/11 10:39:32;;;;;;;;;;;;;;;;;;5096997;28;19948;-78
2022/01/11 10:41:58;;;;;;;;;;;;;;;;;;5077239;28;19924;-82
2022/01/11 10:44:42;;;;;;;;;;;;;;;;;;5082178;28;19980;-78
2022/01/11 10:47:08;;;;;;;;;;;;;;;;;;5085390;28;20289;-82
2022/01/11 10:49:36;;;;;;;;;;;;;;;;;;5096982;28;19927;-80
2022/01/11 10:52:35;;;;;;;;;;;;;;;;;;5080045;28;20015;-79
2022/01/11 10:55:02;;;;;;;;;;;;;;;;;;5032489;28;19977;-77
2022/01/11 10:57:28;;;;;;;;;;;;;;;;;;5076843;28;19921;-76
2022/01/11 11:00:03;;;;;;;;;;;;;;;;;;5072220;28;19926;-78
2022/01/11 11:02:28;;;;;;;;;;;;;;;;;;5076264;28;19916;-77
2022/01/11 11:04:55;;;;;;;;;;;;;;;;;;5079600;28;20206;-79
2022/01/11 11:07:23;;;;;;;;;;;;;;;;;;5072884;28;19920;-79
2022/01/11 11:09:50;;;;;;;;;;;;;;;;;;5075278;28;19917;-81
2022/01/11 11:12:19;;;;;;;;;;;;;;;;;;5073825;28;19920;-79
2022/01/11 11:14:48;;;;;;;;;;;;;;;;;;5073006;28;19916;-77
2022/01/11 11:17:43;;;;;;;;;;;;;;;;;;5072658;28;19923;-79
2022/01/11 11:20:12;;;;;;;;;;;;;;;;;;5074531;28;20391;-78
2022/01/11 11:22:37;;;;;;;;;;;;;;;;;;5075655;28;19916;-79
2022/01/11 11:25:03;;;;;;;;;;;;;;;;;;5075075;28;19924;-82
2022/01/11 11:27:30;;;;;;;;;;;;;;;;;;5073990;28;19916;-79
2022/01/11 11:29:56;;;;;;;;;;;;;;;;;;5073806;28;19917;-78
2022/01/11 11:32:21;;;;;;;;;;;;;;;;;;5074895;28;19923;-79
2022/01/11 11:34:50;;;;;;;;;;;;;;;;;;5099155;28;19920;-79
2022/01/11 11:37:23;;;;;;;;;;;;;;;;;;5117842;28;19916;-77
2022/01/11 11:39:53;;;;;;;;;;;;;;;;;;5077104;28;19944;-77
2022/01/11 11:42:18;;;;;;;;;;;;;;;;;;5116519;28;19939;-77
2022/01/11 11:44:46;;;;;;;;;;;;;;;;;;5095691;28;19965;-78
2022/01/11 11:47:11;;;;;;;;;;;;;;;;;;5095009;28;19972;-77
2022/01/11 11:49:53;;;;;;;;;;;;;;;;;;5114647;28;19916;-78
2022/01/11 11:52:32;;;;;;;;;;;;;;;;;;5093764;28;20348;-79
2022/01/11 11:54:59;;;;;;;;;;;;;;;;;;5076986;28;19916;-78
2022/01/11 11:57:25;;;;;;;;;;;;;;;;;;5094166;28;20281;-78
2022/01/11 12:00:01;;;;;;;;;;;;;;;;;;5096566;28;19965;-76
2022/01/11 12:02:34;;;;;;;;;;;;;;;;;;5118138;28;19908;-77
2022/01/11 12:04:59;;;;;;;;;;;;;;;;;;5112528;28;19919;-75
2022/01/11 12:07:29;;;;;;;;;;;;;;;;;;5110599;28;20495;-78
2022/01/11 12:09:55;;;;;;;;;;;;;;;;;;5093692;28;19922;-77
2022/01/11 12:12:39;;;;;;;;;;;;;;;;;;5111355;28;19915;-77
2022/01/11 12:15:31;;;;;;;;;;;;;;;;;;5112659;28;19922;-77
2022/01/11 12:17:59;;;;;;;;;;;;;;;;;;5104492;28;19927;-77
2022/01/11 12:20:39;;;;;;;;;;;;;;;;;;5113126;28;19916;-78
2022/01/11 12:23:13;;;;;;;;;;;;;;;;;;5119239;28;19916;-77
2022/01/11 12:25:45;;;;;;;;;;;;;;;;;;5092660;28;19950;-77
2022/01/11 12:28:15;;;;;;;;;;;;;;;;;;5098707;28;20068;-77
2022/01/11 12:30:40;;;;;;;;;;;;;;;;;;5103285;28;20014;-78
2022/01/11 12:33:08;;;;;;;;;;;;;;;;;;5073354;28;20065;-78
2022/01/11 12:35:34;;;;;;;;;;;;;;;;;;5086631;28;19976;-79
2022/01/11 12:38:07;;;;;;;;;;;;;;;;;;5071235;28;19920;-77
2022/01/11 12:40:38;;;;;;;;;;;;;;;;;;5091332;28;19927;-79
2022/01/11 12:43:07;;;;;;;;;;;;;;;;;;5095744;28;20186;-77
2022/01/11 12:45:50;;;;;;;;;;;;;;;;;;5089735;28;20010;-77
2022/01/11 12:48:36;;;;;;;;;;;;;;;;;;5089264;28;20261;-77
2022/01/11 12:51:02;;;;;;;;;;;;;;;;;;5094570;28;20458;-78
2022/01/11 12:53:27;;;;;;;;;;;;;;;;;;5094922;28;20006;-79
2022/01/11 12:55:56;;;;;;;;;;;;;;;;;;5092462;28;19969;-76
2022/01/11 12:58:21;;;;;;;;;;;;;;;;;;5093552;28;19917;-79
2022/01/11 13:00:47;;;;;;;;;;;;;;;;;;5101270;28;19918;-77
2022/01/11 13:03:12;;;;;;;;;;;;;;;;;;5097851;28;20002;-77
2022/01/11 13:05:40;;;;;;;;;;;;;;;;;;5095892;28;19920;-77
2022/01/11 13:08:07;;;;;;;;;;;;;;;;;;5095766;28;20003;-78
2022/01/11 13:10:32;;;;;;;;;;;;;;;;;;5096510;28;19951;-77
2022/01/11 13:13:41;;;;;;;;;;;;;;;;;;5097369;28;19959;-78
2022/01/11 13:15:50;;;;;;;;;;;;;;;;;;5096269;28;20014;-77
2022/01/11 13:18:18;;;;;;;;;;;;;;;;;;5078908;28;20015;-78
2022/01/11 13:21:02;;;;;;;;;;;;;;;;;;5108290;28;19916;-78
2022/01/11 13:23:31;;;;;;;;;;;;;;;;;;5096543;28;19916;-78
2022/01/11 13:25:59;;;;;;;;;;;;;;;;;;5096669;28;19958;-78
2022/01/11 13:28:48;;;;;;;;;;;;;;;;;;5095854;28;19922;-75
2022/01/11 13:31:21;;;;;;;;;;;;;;;;;;5096782;28;19916;-78
2022/01/11 13:33:50;;;;;;;;;;;;;;;;;;5099965;28;19977;-77
2022/01/11 13:36:30;;;;;;;;;;;;;;;;;;5082356;28;19920;-78
2022/01/11 13:38:56;;;;;;;;;;;;;;;;;;5082186;28;19920;-77
2022/01/11 13:41:34;;;;;;;;;;;;;;;;;;5087277;28;20218;-78
2022/01/11 13:44:00;;;;;;;;;;;;;;;;;;5095551;28;19966;-78
2022/01/11 13:46:28;;;;;;;;;;;;;;;;;;5095723;28;19920;-77
2022/01/11 13:48:53;;;;;;;;;;;;;;;;;;5078280;28;19916;-77
2022/01/11 13:51:26;;;;;;;;;;;;;;;;;;5078207;28;19950;-77
2022/01/11 13:53:56;;;;;;;;;;;;;;;;;;5096042;28;20295;-78
2022/01/11 13:56:21;;;;;;;;;;;;;;;;;;5078174;28;19959;-78
2022/01/11 13:58:47;;;;;;;;;;;;;;;;;;5080213;28;20326;-77
2022/01/11 14:01:13;;;;;;;;;;;;;;;;;;5100010;28;19947;-76
2022/01/11 14:03:39;;;;;;;;;;;;;;;;;;5096584;28;19955;-78
2022/01/11 14:06:10;;;;;;;;;;;;;;;;;;5061676;28;19916;-77
2022/01/11 14:08:38;;;;;;;;;;;;;;;;;;5096541;28;19942;-76
2022/01/11 14:14:05;;;;;;;;;;;;;;;;;;5044103;28;20270;-77
2022/01/11 14:16:34;;;;;;;;;;;;;;;;;;5087448;28;19916;-78
2022/01/11 14:19:06;;;;;;;;;;;;;;;;;;5099565;28;19916;-77
2022/01/11 14:21:32;;;;;;;;;;;;;;;;;;5097911;28;19916;-78
2022/01/11 14:23:58;;;;;;;;;;;;;;;;;;5078028;28;19918;-77
2022/01/11 14:26:33;;;;;;;;;;;;;;;;;;5078311;28;20248;-78
2022/01/11 14:28:58;;;;;;;;;;;;;;;;;;5081418;28;19927;-81
2022/01/11 14:31:26;;;;;;;;;;;;;;;;;;5102032;28;19950;-81
2022/01/11 14:33:51;;;;;;;;;;;;;;;;;;5086594;28;19920;-80
2022/01/11 14:36:21;;;;;;;;;;;;;;;;;;5078013;28;20003;-77
2022/01/11 14:38:49;;;;;;;;;;;;;;;;;;5078776;28;19916;-77
2022/01/11 14:41:35;;;;;;;;;;;;;;;;;;5105680;28;20597;-77
2022/01/11 14:44:01;;;;;;;;;;;;;;;;;;5077881;28;19965;-77
2022/01/11 14:46:26;;;;;;;;;;;;;;;;;;5095634;28;20257;-78
2022/01/11 14:48:52;;;;;;;;;;;;;;;;;;5095667;28;20300;-78
2022/01/11 14:51:21;;;;;;;;;;;;;;;;;;5095746;28;20061;-79
2022/01/11 14:53:48;;;;;;;;;;;;;;;;;;5077675;28;19923;-78
2022/01/11 14:56:13;;;;;;;;;;;;;;;;;;5077949;28;19916;-78
2022/01/11 14:58:39;;;;;;;;;;;;;;;;;;5095631;28;20003;-78
2022/01/11 15:01:06;;;;;;;;;;;;;;;;;;5105388;28;19917;-81
2022/01/11 15:03:33;;;;;;;;;;;;;;;;;;5096328;28;19938;-79
2022/01/11 15:06:09;;;;;;;;;;;;;;;;;;5077540;28;19916;-79
2022/01/11 15:08:35;;;;;;;;;;;;;;;;;;5095517;28;20257;-78
2022/01/11 15:11:13;;;;;;;;;;;;;;;;;;5077393;28;20329;-79
2022/01/11 15:13:39;;;;;;;;;;;;;;;;;;5095413;28;19924;-78
2022/01/11 15:16:05;;;;;;;;;;;;;;;;;;5095305;28;19995;-78
2022/01/11 15:18:30;;;;;;;;;;;;;;;;;;5060489;28;20304;-78
2022/01/11 15:21:02;;;;;;;;;;;;;;;;;;5081745;28;20260;-78
2022/01/11 15:23:27;;;;;;;;;;;;;;;;;;5078627;28;19920;-78
2022/01/11 15:25:52;;;;;;;;;;;;;;;;;;5095124;28;19923;-76
2022/01/11 15:28:18;;;;;;;;;;;;;;;;;;5076836;28;19916;-78
2022/01/11 15:30:43;;;;;;;;;;;;;;;;;;5095023;28;19916;-78
2022/01/11 15:33:08;;;;;;;;;;;;;;;;;;5095062;28;20299;-78
2022/01/11 15:35:34;;;;;;;;;;;;;;;;;;5094858;28;19942;-77
2022/01/11 15:38:00;;;;;;;;;;;;;;;;;;5095107;28;19939;-78
2022/01/11 15:40:26;;;;;;;;;;;;;;;;;;5076904;28;19966;-77
2022/01/11 15:42:52;;;;;;;;;;;;;;;;;;5082564;28;20325;-78
2022/01/11 15:45:17;;;;;;;;;;;;;;;;;;5076946;28;19916;-81
2022/01/11 15:47:43;;;;;;;;;;;;;;;;;;5077320;28;19916;-82
2022/01/11 15:50:08;;;;;;;;;;;;;;;;;;5081405;28;19916;-81
2022/01/11 15:52:34;;;;;;;;;;;;;;;;;;5080945;28;19916;-82
2022/01/11 15:55:00;;;;;;;;;;;;;;;;;;5100900;28;20248;-80
2022/01/11 15:57:26;;;;;;;;;;;;;;;;;;5088391;23;19924;-77
2022/01/11 15:59:51;;;;;;;;;;;;;;;;;;5076416;28;20031;-78
2022/01/11 16:02:16;;;;;;;;;;;;;;;;;;5083942;28;19931;-79
2022/01/11 16:04:42;;;;;;;;;;;;;;;;;;5095311;28;19916;-77
2022/01/11 16:07:07;;;;;;;;;;;;;;;;;;5094143;28;19916;-77
2022/01/11 16:09:32;;;;;;;;;;;;;;;;;;5094157;28;19920;-77
2022/01/11 16:11:58;;;;;;;;;;;;;;;;;;5092903;28;20055;-77
2022/01/11 16:14:23;;;;;;;;;;;;;;;;;;5094124;28;19916;-78
2022/01/11 16:16:49;;;;;;;;;;;;;;;;;;5076887;28;19966;-78
2022/01/11 16:19:15;;;;;;;;;;;;;;;;;;5093903;28;19999;-78
2022/01/11 16:21:40;;;;;;;;;;;;;;;;;;5094633;28;19916;-77
2022/01/11 16:24:06;;;;;;;;;;;;;;;;;;5100424;28;19965;-77
2022/01/11 16:26:32;;;;;;;;;;;;;;;;;;5097330;28;20074;-78
2022/01/11 16:28:59;;;;;;;;;;;;;;;;;;5097342;28;19916;-77
2022/01/11 16:31:24;;;;;;;;;;;;;;;;;;5098686;28;19993;-77
2022/01/11 16:33:50;;;;;;;;;;;;;;;;;;5098519;28;19920;-77
2022/01/11 16:36:16;;;;;;;;;;;;;;;;;;5098602;28;19916;-77
2022/01/11 16:38:42;;;;;;;;;;;;;;;;;;5098404;28;19916;-79
2022/01/11 16:43:33;;;;;;;;;;;;;;;;;;5098317;28;19944;-79
2022/01/11 16:45:59;;;;;;;;;;;;;;;;;;5097892;28;19973;-75
2022/01/11 16:48:25;;;;;;;;;;;;;;;;;;5076327;28;20021;-76
2022/01/11 16:50:50;;;;;;;;;;;;;;;;;;5076323;28;20346;-77
2022/01/11 16:53:17;;;;;;;;;;;;;;;;;;5077424;28;19916;-77